createdAt,value
2019-03-20T00:02:09.160Z,88607.39
2019-03-20T00:04:48.965Z,88655.25
2019-03-20T00:07:10.598Z,88692.34
2019-03-20T00:09:40.396Z,88655.20
2019-03-20T00:12:10.218Z,88663.50
2019-03-20T00:14:40.059Z,87344.28
2019-03-20T00:17:10.033Z,88805.94
2019-03-20T00:19:39.816Z,88735.46
2019-03-20T00:22:09.620Z,88715.31
2019-03-20T00:24:39.385Z,88751.41
2019-03-20T00:27:09.162Z,89140.36
2019-03-20T00:29:38.946Z,89124.04
2019-03-20T00:32:08.636Z,89202.63
2019-03-20T00:34:38.361Z,89228.75
2019-03-20T00:37:08.137Z,89389.56
2019-03-20T00:39:37.911Z,89518.23
2019-03-20T00:42:07.733Z,89706.23
2019-03-20T00:44:37.554Z,89468.18
2019-03-20T00:47:07.318Z,89208.96
2019-03-20T00:49:37.135Z,89360.66
2019-03-20T00:52:07.183Z,89292.66
2019-03-20T00:54:37.532Z,89590.30
2019-03-20T00:57:07.364Z,89468.51
2019-03-20T00:59:37.152Z,89593.62
2019-03-20T01:02:06.916Z,89507.91
2019-03-20T01:04:36.716Z,89425.36
2019-03-20T01:07:06.530Z,89559.14
2019-03-20T01:09:36.350Z,89538.60
2019-03-20T01:12:06.166Z,89361.71
2019-03-20T01:14:35.877Z,89144.25
2019-03-20T01:17:05.656Z,88959.72
2019-03-20T01:19:35.433Z,88731.33
2019-03-20T01:22:05.419Z,88681.87
2019-03-20T01:24:35.191Z,88489.80
2019-03-20T01:27:05.035Z,88294.68
2019-03-20T01:29:34.902Z,88304.76
2019-03-20T01:32:04.587Z,88446.20
2019-03-20T01:34:34.440Z,88498.58
2019-03-20T01:37:04.280Z,88576.72
2019-03-20T01:39:33.989Z,88330.61
2019-03-20T01:42:03.821Z,88343.69
2019-03-20T01:44:33.620Z,88339.97
2019-03-20T01:47:03.516Z,88191.30
2019-03-20T01:49:33.372Z,88298.23
2019-03-20T01:52:03.128Z,88244.44
2019-03-20T01:54:32.881Z,88292.89
2019-03-20T01:57:02.679Z,88285.10
2019-03-20T01:59:32.464Z,88158.47
2019-03-20T02:02:02.262Z,87882.69
2019-03-20T02:04:32.024Z,87825.88
2019-03-20T02:07:01.803Z,87801.14
2019-03-20T02:09:31.590Z,88004.05
2019-03-20T02:12:01.382Z,88121.04
2019-03-20T02:14:31.278Z,88016.25
2019-03-20T02:17:01.034Z,87759.89
2019-03-20T02:19:30.813Z,87598.94
2019-03-20T02:22:00.635Z,87547.10
2019-03-20T02:24:30.423Z,87472.21
2019-03-20T02:27:00.192Z,87489.88
2019-03-20T02:29:29.997Z,87532.55
2019-03-20T02:31:59.782Z,87535.95
2019-03-20T02:34:29.608Z,87436.36
2019-03-20T02:36:59.356Z,87412.12
2019-03-20T02:39:29.207Z,87356.13
2019-03-20T02:41:59.028Z,87267.10
2019-03-20T02:44:28.757Z,87159.47
2019-03-20T02:46:58.542Z,87033.73
2019-03-20T02:49:28.337Z,86759.05
2019-03-20T02:51:58.194Z,86764.16
2019-03-20T02:54:27.939Z,86832.94
2019-03-20T02:56:57.877Z,86839.03
2019-03-20T02:59:27.678Z,86917.09
2019-03-20T03:01:57.520Z,86951.33
2019-03-20T03:04:27.277Z,86700.97
2019-03-20T03:06:58.648Z,86803.34
2019-03-20T03:09:28.455Z,86842.50
2019-03-20T03:11:58.234Z,86723.61
2019-03-20T03:14:28.210Z,86671.48
2019-03-20T03:16:58.141Z,86632.52
2019-03-20T03:19:27.950Z,86637.66
2019-03-20T03:21:57.796Z,86654.62
2019-03-20T03:24:28.091Z,86657.79
2019-03-20T03:26:57.835Z,86507.68
2019-03-20T03:29:28.170Z,86449.96
2019-03-20T03:31:57.962Z,86394.72
2019-03-20T03:34:27.827Z,86228.55
2019-03-20T03:36:57.617Z,86225.48
2019-03-20T03:39:27.417Z,86167.03
2019-03-20T03:41:57.185Z,85888.96
2019-03-20T03:44:26.889Z,85815.22
2019-03-20T03:46:56.578Z,85714.25
2019-03-20T03:49:26.251Z,85658.52
2019-03-20T03:51:56.080Z,85547.20
2019-03-20T03:54:25.879Z,85745.20
2019-03-20T03:56:55.644Z,85681.00
2019-03-20T03:59:25.512Z,85435.25
2019-03-20T04:01:55.319Z,85323.81
2019-03-20T04:04:25.082Z,85171.39
2019-03-20T04:06:54.868Z,85121.00
2019-03-20T04:09:24.656Z,84912.78
2019-03-20T04:11:54.545Z,84838.09
2019-03-20T04:14:24.256Z,84840.88
2019-03-20T04:16:54.043Z,84669.05
2019-03-20T04:19:23.817Z,84560.91
2019-03-20T04:21:53.620Z,84336.54
2019-03-20T04:24:23.381Z,84164.98
2019-03-20T04:26:53.220Z,83961.21
2019-03-20T04:29:22.968Z,83866.63
2019-03-20T04:31:52.762Z,84289.51
2019-03-20T04:34:22.561Z,83961.11
2019-03-20T04:36:52.358Z,83734.90
2019-03-20T04:39:22.202Z,83339.69
2019-03-20T04:41:51.990Z,83434.27
2019-03-20T04:44:21.786Z,83185.58
2019-03-20T04:46:51.578Z,83141.86
2019-03-20T04:49:21.274Z,83167.41
2019-03-20T04:51:51.082Z,82719.15
2019-03-20T04:54:20.852Z,83112.72
2019-03-20T04:56:50.554Z,83127.30
2019-03-20T04:59:20.352Z,83033.22
2019-03-20T05:01:50.146Z,82918.72
2019-03-20T05:04:20.040Z,83033.56
2019-03-20T05:06:58.232Z,82994.89
2019-03-20T05:09:21.394Z,83153.58
2019-03-20T05:11:51.160Z,83265.56
2019-03-20T05:14:20.923Z,83217.05
2019-03-20T05:16:50.751Z,83445.90
2019-03-20T05:19:20.525Z,84161.98
2019-03-20T05:21:53.166Z,84794.08
2019-03-20T05:24:22.879Z,85312.20
2019-03-20T05:26:52.850Z,85712.80
2019-03-20T05:29:22.626Z,85774.30
2019-03-20T05:31:52.389Z,86033.47
2019-03-20T05:34:22.197Z,85957.03
2019-03-20T05:36:51.988Z,85878.00
2019-03-20T05:39:21.750Z,85936.03
2019-03-20T05:41:51.570Z,85889.09
2019-03-20T05:44:21.302Z,86156.41
2019-03-20T05:46:51.101Z,86313.05
2019-03-20T05:49:20.878Z,87082.95
2019-03-20T05:51:50.680Z,87590.28
2019-03-20T05:54:20.625Z,87631.95
2019-03-20T05:56:50.402Z,88674.06
2019-03-20T05:59:20.223Z,89510.27
2019-03-20T06:01:52.249Z,90466.98
2019-03-20T06:04:22.058Z,91083.84
2019-03-20T06:06:51.837Z,91329.39
2019-03-20T06:09:22.547Z,91870.61
2019-03-20T06:11:53.267Z,92370.37
2019-03-20T06:14:23.046Z,92375.09
2019-03-20T06:16:53.294Z,92366.78
2019-03-20T06:19:22.946Z,92401.86
2019-03-20T06:21:54.970Z,92521.55
2019-03-20T06:24:24.807Z,92734.98
2019-03-20T06:26:54.856Z,93086.93
2019-03-20T06:29:25.634Z,93474.36
2019-03-20T06:31:55.538Z,93225.22
2019-03-20T06:34:25.337Z,93214.86
2019-03-20T06:36:56.267Z,93590.70
2019-03-20T06:39:26.077Z,93752.44
2019-03-20T06:41:55.826Z,93724.95
2019-03-20T06:44:25.667Z,93885.44
2019-03-20T06:46:55.428Z,94112.06
2019-03-20T06:49:29.579Z,94399.81
2019-03-20T06:52:05.357Z,94742.34
2019-03-20T06:54:35.859Z,95040.52
2019-03-20T06:57:06.587Z,95152.22
2019-03-20T06:59:39.608Z,95336.05
2019-03-20T07:02:09.265Z,95347.12
2019-03-20T07:04:54.351Z,95337.33
2019-03-20T07:07:27.160Z,95269.14
2019-03-20T07:10:21.552Z,95155.44
2019-03-20T07:12:52.447Z,95283.67
2019-03-20T07:15:22.271Z,95415.59
2019-03-20T07:17:52.785Z,95450.06
2019-03-20T07:20:25.137Z,95676.09
2019-03-20T07:22:55.269Z,95611.91
2019-03-20T07:25:28.291Z,95622.45
2019-03-20T07:27:57.896Z,95323.41
2019-03-20T07:30:28.096Z,95123.75
2019-03-20T07:32:58.431Z,95234.45
2019-03-20T07:35:32.147Z,95101.23
2019-03-20T07:38:03.615Z,95086.45
2019-03-20T07:40:36.262Z,95484.37
2019-03-20T07:43:09.107Z,95368.42
2019-03-20T07:45:37.780Z,95214.96
2019-03-20T07:48:08.173Z,94983.59
2019-03-20T07:50:37.959Z,94831.25
2019-03-20T07:53:08.640Z,94995.34
2019-03-20T07:55:40.528Z,94789.05
2019-03-20T07:58:10.418Z,94912.72
2019-03-20T08:00:40.705Z,94870.12
2019-03-20T08:03:10.966Z,94877.72
2019-03-20T08:05:41.554Z,95132.59
2019-03-20T08:08:11.165Z,95159.46
2019-03-20T08:10:40.935Z,95053.87
2019-03-20T08:13:12.398Z,94871.91
2019-03-20T08:15:42.182Z,94977.02
2019-03-20T08:18:11.947Z,95011.79
2019-03-20T08:20:41.897Z,95057.88
2019-03-20T08:23:11.856Z,94675.30
2019-03-20T08:25:41.905Z,94929.52
2019-03-20T08:28:11.666Z,94816.08
2019-03-20T08:30:42.375Z,94831.30
2019-03-20T08:33:12.187Z,94773.82
2019-03-20T08:35:41.973Z,94795.34
2019-03-20T08:38:18.189Z,94658.67
2019-03-20T08:40:43.295Z,94624.91
2019-03-20T08:43:18.972Z,94679.37
2019-03-20T08:45:48.830Z,94756.09
2019-03-20T08:48:31.028Z,95158.77
2019-03-20T08:51:00.856Z,94853.57
2019-03-20T08:53:30.695Z,94838.64
2019-03-20T08:56:00.501Z,94711.42
2019-03-20T08:58:39.318Z,94622.85
2019-03-20T09:01:09.169Z,94666.14
2019-03-20T09:03:39.132Z,94753.67
2019-03-20T09:06:08.909Z,94529.77
2019-03-20T09:08:38.660Z,94336.95
2019-03-20T09:11:08.500Z,94413.61
2019-03-20T09:13:38.455Z,94770.39
2019-03-20T09:16:08.268Z,95007.84
2019-03-20T09:18:38.161Z,95146.73
2019-03-20T09:21:07.931Z,94971.88
2019-03-20T09:23:37.698Z,94922.38
2019-03-20T09:26:07.653Z,95029.23
2019-03-20T09:28:37.563Z,95105.06
2019-03-20T09:31:07.380Z,95056.65
2019-03-20T09:33:37.147Z,95169.67
2019-03-20T09:36:06.917Z,95201.14
2019-03-20T09:38:43.421Z,95308.91
2019-03-20T09:41:08.219Z,95423.66
2019-03-20T09:43:38.031Z,95450.70
2019-03-20T09:46:07.852Z,95428.72
2019-03-20T09:48:37.676Z,95509.42
2019-03-20T09:51:07.533Z,95564.68
2019-03-20T09:53:37.338Z,95453.38
2019-03-20T09:56:07.149Z,95353.45
2019-03-20T09:58:36.950Z,95219.06
2019-03-20T10:01:07.687Z,95298.95
2019-03-20T10:03:37.525Z,95471.79
2019-03-20T10:06:07.332Z,95579.54
2019-03-20T10:08:37.154Z,95336.95
2019-03-20T10:11:06.966Z,95421.74
2019-03-20T10:13:36.832Z,95438.83
2019-03-20T10:16:06.652Z,95277.72
2019-03-20T10:18:36.840Z,95235.84
2019-03-20T10:21:06.753Z,95197.47
2019-03-20T10:23:39.230Z,95381.75
2019-03-20T10:26:09.110Z,95661.36
2019-03-20T10:28:38.858Z,95795.19
2019-03-20T10:31:08.947Z,95892.73
2019-03-20T10:33:38.841Z,96222.05
2019-03-20T10:36:08.712Z,96430.61
2019-03-20T10:38:38.573Z,96537.08
2019-03-20T10:41:09.481Z,96704.65
2019-03-20T10:43:40.220Z,96797.70
2019-03-20T10:46:11.117Z,96746.16
2019-03-20T10:48:41.032Z,96591.50
2019-03-20T10:51:10.864Z,96571.58
2019-03-20T10:53:41.271Z,96463.46
2019-03-20T10:56:11.047Z,96463.25
2019-03-20T10:58:41.483Z,96477.17
2019-03-20T11:01:11.301Z,96445.38
2019-03-20T11:03:41.154Z,96547.78
2019-03-20T11:06:10.978Z,96667.23
2019-03-20T11:08:42.284Z,96578.87
2019-03-20T11:11:12.155Z,96504.46
2019-03-20T11:13:42.442Z,96343.61
2019-03-20T11:16:12.292Z,96331.77
2019-03-20T11:18:42.129Z,96257.72
2019-03-20T11:21:11.992Z,96365.48
2019-03-20T11:23:41.797Z,96514.34
2019-03-20T11:26:12.296Z,96484.97
2019-03-20T11:28:42.118Z,96434.66
2019-03-20T11:31:11.909Z,96548.70
2019-03-20T11:33:41.737Z,96478.20
2019-03-20T11:36:11.551Z,96494.17
2019-03-20T11:38:41.279Z,96242.36
2019-03-20T11:41:11.162Z,96357.87
2019-03-20T11:43:41.532Z,96390.52
2019-03-20T11:46:11.387Z,96388.86
2019-03-20T11:48:43.079Z,96469.77
2019-03-20T11:51:13.186Z,96531.72
2019-03-20T11:53:44.652Z,96432.37
2019-03-20T11:56:15.325Z,96282.25
2019-03-20T11:58:45.184Z,96335.63
2019-03-20T12:01:15.054Z,96390.58
2019-03-20T12:03:44.839Z,96298.84
2019-03-20T12:06:18.373Z,96333.03
2019-03-20T12:08:48.206Z,96346.04
2019-03-20T12:11:18.677Z,96373.94
2019-03-20T12:13:48.484Z,96420.28
2019-03-20T12:16:19.105Z,96274.54
2019-03-20T12:18:48.904Z,96326.78
2019-03-20T12:21:18.721Z,96198.66
2019-03-20T12:23:48.540Z,96067.84
2019-03-20T12:26:19.181Z,96049.29
2019-03-20T12:28:48.959Z,96030.39
2019-03-20T12:31:18.935Z,95927.54
2019-03-20T12:33:49.080Z,96121.13
2019-03-20T12:36:18.942Z,95953.73
2019-03-20T12:38:48.792Z,95796.64
2019-03-20T12:41:20.100Z,95772.44
2019-03-20T12:43:49.932Z,95924.89
2019-03-20T12:46:19.776Z,95889.80
2019-03-20T12:48:50.158Z,95772.56
2019-03-20T12:51:22.157Z,95772.80
2019-03-20T12:53:52.314Z,95807.06
2019-03-20T12:56:22.126Z,95824.06
2019-03-20T12:58:53.062Z,95918.09
2019-03-20T13:01:22.899Z,95884.72
2019-03-20T13:03:52.720Z,95765.55
2019-03-20T13:06:22.493Z,95704.69
2019-03-20T13:08:52.437Z,95746.31
2019-03-20T13:11:22.258Z,95829.05
2019-03-20T13:13:52.149Z,95901.64
2019-03-20T13:16:22.045Z,95904.74
2019-03-20T13:18:51.970Z,95932.58
2019-03-20T13:21:21.751Z,95874.19
2019-03-20T13:23:53.570Z,95891.05
2019-03-20T13:26:23.380Z,95949.72
2019-03-20T13:28:53.239Z,96032.63
2019-03-20T13:31:23.895Z,96064.59
2019-03-20T13:33:55.338Z,95956.69
2019-03-20T13:36:25.107Z,95961.48
2019-03-20T13:38:56.547Z,96027.00
2019-03-20T13:41:26.998Z,96127.30
2019-03-20T13:43:56.860Z,96044.66
2019-03-20T13:46:26.671Z,96146.02
2019-03-20T13:48:56.491Z,96195.91
2019-03-20T13:51:26.411Z,96031.78
2019-03-20T13:53:56.382Z,96002.14
2019-03-20T13:56:26.507Z,95900.28
2019-03-20T13:58:56.768Z,95894.45
2019-03-20T14:01:26.564Z,95725.73
2019-03-20T14:03:56.404Z,95692.23
2019-03-20T14:06:26.257Z,95694.16
2019-03-20T14:08:56.097Z,95784.67
2019-03-20T14:11:25.758Z,95774.89
2019-03-20T14:13:55.713Z,95834.91
2019-03-20T14:16:25.561Z,95719.89
2019-03-20T14:18:55.298Z,95706.88
2019-03-20T14:21:25.216Z,95718.52
2019-03-20T14:23:55.215Z,95820.28
2019-03-20T14:26:25.077Z,95745.45
2019-03-20T14:28:54.918Z,95705.33
2019-03-20T14:31:24.838Z,95658.51
2019-03-20T14:33:54.592Z,95719.31
2019-03-20T14:36:24.763Z,95696.39
2019-03-20T14:38:54.672Z,95628.34
2019-03-20T14:41:24.756Z,95535.09
2019-03-20T14:43:54.630Z,95508.75
2019-03-20T14:46:24.601Z,95494.27
2019-03-20T14:48:54.383Z,95486.14
2019-03-20T14:51:24.399Z,95512.70
2019-03-20T14:53:54.269Z,95704.53
2019-03-20T14:56:24.683Z,95601.95
2019-03-20T14:58:54.450Z,95540.83
2019-03-20T15:01:24.362Z,95713.38
2019-03-20T15:03:54.117Z,95575.98
2019-03-20T15:06:23.969Z,95492.44
2019-03-20T15:08:53.848Z,95666.48
2019-03-20T15:11:23.683Z,95629.35
2019-03-20T15:13:53.614Z,95529.50
2019-03-20T15:16:23.425Z,95530.45
2019-03-20T15:18:53.283Z,95519.81
2019-03-20T15:21:24.855Z,95537.78
2019-03-20T15:23:56.798Z,95575.16
2019-03-20T15:26:26.767Z,95582.94
2019-03-20T15:28:56.657Z,95579.98
2019-03-20T15:31:26.519Z,95586.53
2019-03-20T15:33:58.082Z,95558.59
2019-03-20T15:36:27.997Z,95631.56
2019-03-20T15:38:57.839Z,95550.97
2019-03-20T15:41:27.650Z,95538.23
2019-03-20T15:44:02.461Z,95472.94
2019-03-20T15:46:29.006Z,95398.44
2019-03-20T15:48:58.860Z,95274.08
2019-03-20T15:51:28.666Z,95203.66
2019-03-20T15:53:58.497Z,95137.94
2019-03-20T15:56:28.352Z,95050.45
2019-03-20T15:58:58.210Z,94994.50
2019-03-20T16:01:28.116Z,94979.11
2019-03-20T16:03:59.497Z,94976.85
2019-03-20T16:06:29.682Z,94946.22
2019-03-20T16:08:59.556Z,94920.00
2019-03-20T16:11:29.366Z,94897.39
2019-03-20T16:14:02.053Z,94881.27
2019-03-20T16:16:31.902Z,94989.16
2019-03-20T16:19:01.766Z,94986.13
2019-03-20T16:21:31.625Z,94967.05
2019-03-20T16:24:01.487Z,94974.39
2019-03-20T16:26:31.519Z,95125.41
2019-03-20T16:29:01.449Z,95062.59
2019-03-20T16:31:31.313Z,95051.34
2019-03-20T16:34:01.194Z,95017.45
2019-03-20T16:36:31.454Z,94999.06
2019-03-20T16:39:01.316Z,95181.67
2019-03-20T16:41:31.234Z,95062.26
2019-03-20T16:44:01.117Z,94899.52
2019-03-20T16:46:30.943Z,94776.83
2019-03-20T16:49:00.824Z,94637.22
2019-03-20T16:51:30.824Z,94561.23
2019-03-20T16:54:00.723Z,94471.69
2019-03-20T16:56:30.572Z,94371.70
2019-03-20T16:59:00.428Z,94292.48
2019-03-20T17:01:30.330Z,94213.23
2019-03-20T17:04:00.160Z,94292.44
2019-03-20T17:06:29.999Z,94216.33
2019-03-20T17:08:59.898Z,94047.16
2019-03-20T17:11:38.135Z,93930.00
2019-03-20T17:14:01.393Z,93814.09
2019-03-20T17:16:31.260Z,93808.36
2019-03-20T17:19:01.100Z,93689.52
2019-03-20T17:21:30.979Z,93632.06
2019-03-20T17:24:00.870Z,93595.45
2019-03-20T17:26:30.717Z,93480.61
2019-03-20T17:29:08.553Z,93430.79
2019-03-20T17:31:32.152Z,93333.95
2019-03-20T17:34:02.199Z,93213.92
2019-03-20T17:36:32.311Z,93220.57
2019-03-20T17:39:02.172Z,93110.20
2019-03-20T17:41:36.611Z,93031.42
2019-03-20T17:44:03.841Z,92949.64
2019-03-20T17:46:33.729Z,92925.95
2019-03-20T17:49:03.627Z,92961.33
2019-03-20T17:51:33.452Z,92867.41
2019-03-20T17:54:04.331Z,92815.08
2019-03-20T17:56:34.256Z,92774.95
2019-03-20T17:59:04.419Z,92741.93
2019-03-20T18:01:34.233Z,92666.38
2019-03-20T18:04:04.256Z,92574.25
2019-03-20T18:06:34.367Z,92549.30
2019-03-20T18:09:06.014Z,92705.91
2019-03-20T18:11:35.845Z,93070.25
2019-03-20T18:14:05.710Z,92807.10
2019-03-20T18:16:35.543Z,92716.53
2019-03-20T18:19:05.454Z,92786.78
2019-03-20T18:21:35.404Z,93288.31
2019-03-20T18:24:05.421Z,93246.22
2019-03-20T18:26:35.319Z,93107.91
2019-03-20T18:29:05.376Z,93025.30
2019-03-20T18:31:35.235Z,92974.78
2019-03-20T18:34:05.313Z,92763.75
2019-03-20T18:36:35.220Z,92648.18
2019-03-20T18:39:06.952Z,92522.96
2019-03-20T18:41:36.812Z,92385.14
2019-03-20T18:44:07.119Z,92253.59
2019-03-20T18:46:36.989Z,92233.58
2019-03-20T18:49:06.818Z,92219.73
2019-03-20T18:51:36.911Z,92116.58
2019-03-20T18:54:07.107Z,92068.91
2019-03-20T18:56:37.154Z,91966.30
2019-03-20T18:59:08.635Z,91850.94
2019-03-20T19:01:38.447Z,91860.19
2019-03-20T19:04:08.442Z,91712.27
2019-03-20T19:06:38.492Z,91574.67
2019-03-20T19:09:09.985Z,91445.45
2019-03-20T19:11:40.957Z,91582.00
2019-03-20T19:14:10.901Z,91308.88
2019-03-20T19:16:40.769Z,91108.95
2019-03-20T19:19:11.671Z,91005.65
2019-03-20T19:21:41.587Z,91018.39
2019-03-20T19:24:11.641Z,91091.30
2019-03-20T19:26:41.735Z,91155.34
2019-03-20T19:29:11.905Z,90901.60
2019-03-20T19:31:42.221Z,90659.55
2019-03-20T19:34:12.078Z,90432.02
2019-03-20T19:36:41.990Z,90174.67
2019-03-20T19:39:12.019Z,89938.97
2019-03-20T19:41:42.032Z,89951.68
2019-03-20T19:44:11.914Z,89951.68
2019-03-20T19:46:41.860Z,89630.55
2019-03-20T19:49:11.779Z,89604.95
2019-03-20T19:51:41.639Z,89571.56
2019-03-20T19:54:13.166Z,89543.16
2019-03-20T19:56:43.112Z,89445.09
2019-03-20T19:59:13.082Z,89378.39
2019-03-20T20:01:42.923Z,89282.95
2019-03-20T20:04:12.854Z,89317.64
2019-03-20T20:06:42.898Z,89199.97
2019-03-20T20:09:12.957Z,89124.48
2019-03-20T20:11:43.072Z,89003.37
2019-03-20T20:14:12.970Z,88839.25
2019-03-20T20:16:42.870Z,88048.58
2019-03-20T20:19:12.761Z,88455.03
2019-03-20T20:21:42.587Z,88256.27
2019-03-20T20:24:12.477Z,88227.08
2019-03-20T20:26:42.456Z,88219.11
2019-03-20T20:29:12.259Z,88207.56
2019-03-20T20:31:42.089Z,88026.80
2019-03-20T20:34:11.939Z,87811.23
2019-03-20T20:36:41.717Z,87826.38
2019-03-20T20:39:11.592Z,87877.69
2019-03-20T20:41:41.480Z,87968.58
2019-03-20T20:44:11.249Z,87889.39
2019-03-20T20:46:41.222Z,87778.04
2019-03-20T20:49:11.057Z,87511.76
2019-03-20T20:51:40.860Z,87663.02
2019-03-20T20:54:10.661Z,87518.57
2019-03-20T20:56:40.515Z,87439.11
2019-03-20T20:59:10.412Z,87667.84
2019-03-20T21:01:40.223Z,87231.47
2019-03-20T21:04:10.085Z,86955.84
2019-03-20T21:06:39.945Z,86742.72
2019-03-20T21:09:09.764Z,86588.94
2019-03-20T21:11:39.730Z,86619.86
2019-03-20T21:14:09.586Z,86685.17
2019-03-20T21:16:39.619Z,86508.98
2019-03-20T21:19:21.389Z,86196.18
2019-03-20T21:21:54.234Z,86108.80
2019-03-20T21:24:24.037Z,86008.68
2019-03-20T21:27:28.946Z,86198.36
2019-03-20T21:30:20.141Z,86067.67
2019-03-20T21:33:08.039Z,86079.19
2019-03-20T21:36:14.059Z,85891.59
2019-03-20T21:38:43.944Z,85839.53
2019-03-20T21:41:28.596Z,85974.56
2019-03-20T21:44:22.384Z,85815.58
2019-03-20T21:47:29.860Z,85504.14
2019-03-20T21:50:02.021Z,85430.06
2019-03-20T21:52:31.733Z,85114.56
2019-03-20T21:55:25.366Z,84979.49
2019-03-20T21:58:04.202Z,84943.86
2019-03-20T22:01:02.607Z,84933.11
2019-03-20T22:03:32.457Z,84933.11
2019-03-20T22:06:08.058Z,84853.95
2019-03-20T22:08:37.855Z,85045.27
2019-03-20T22:11:19.911Z,85081.42
2019-03-20T22:13:55.375Z,84769.69
2019-03-20T22:16:47.997Z,84739.27
2019-03-20T22:19:45.146Z,84698.34
2019-03-20T22:22:17.992Z,84662.91
2019-03-20T22:25:24.106Z,84710.35
2019-03-20T22:28:19.719Z,84706.80
2019-03-20T22:30:50.220Z,84440.75
2019-03-20T22:33:57.139Z,84440.75
2019-03-20T22:36:27.063Z,84252.19
2019-03-20T22:39:14.692Z,84226.41
2019-03-20T22:41:51.624Z,84293.47
2019-03-20T22:44:22.091Z,84190.44
2019-03-20T22:47:57.457Z,84125.59
2019-03-20T22:51:00.770Z,83837.09
2019-03-20T22:53:46.997Z,83839.27
2019-03-20T22:56:31.438Z,83653.13
2019-03-20T22:59:01.224Z,83463.42
2019-03-20T23:01:39.701Z,83244.83
2019-03-20T23:04:18.021Z,83296.89
2019-03-20T23:06:47.874Z,83250.39
2019-03-20T23:09:17.595Z,83160.87
2019-03-20T23:11:47.459Z,83079.93
2019-03-20T23:14:17.150Z,83098.97
2019-03-20T23:16:46.968Z,83166.61
2019-03-20T23:19:16.706Z,83136.91
2019-03-20T23:21:46.491Z,82997.77
2019-03-20T23:24:16.285Z,82725.42
2019-03-20T23:26:46.108Z,82641.36
2019-03-20T23:29:15.918Z,82579.34
2019-03-20T23:31:45.776Z,82694.19
2019-03-20T23:34:15.549Z,82647.66
2019-03-20T23:36:45.398Z,82761.03
2019-03-20T23:39:15.185Z,82773.92
2019-03-20T23:41:44.990Z,82699.28
2019-03-20T23:44:14.747Z,82700.38
2019-03-20T23:46:44.750Z,82700.38
2019-03-20T23:49:26.348Z,82627.48
2019-03-20T23:51:56.429Z,82441.50
2019-03-20T23:54:32.138Z,82234.58
2019-03-20T23:57:01.953Z,82074.25
2019-03-20T23:59:31.902Z,81918.33
